Accueil
METAR-TAF:

METAR-TAF

Aéroports :

Aéroport d'Osijek

Osijek, Croatie

latitude: 45-27N, longitude: 018-48E, altitude: 88 m

Observation

Le bulletin a été fait il y a 24 minutes, à 07:00 UTC
Vent 10 kt de nord-ouest
Température 16°C
Humidité 82%
Pression 1022 hPa
Visibilité 10 km ou plus
Nuages fragmentés à une hauteur de 1000 ft

METAR: LDOS 120700Z 31010KT 9999 BKN010 16/13 Q1022

Heure: 09:24 (07:24 UTC)

Prévision

Le bulletin a été fait il y a 1 heure et 59 minutes, à 05:25 UTC
Prévision valable du 12 à 06 UTC au 13 à 06 UTC
Vent 10 kt de nord-ouest
Visibilité 10 km ou plus
Nuages épars à une hauteur de 1000 ft
Evoluant progressivement
du 12 à 13 UTC au 12 à 15 UTC
Vent 10 kt de nord
Evoluant progressivement
du 12 à 16 UTC au 12 à 18 UTC
Vent 6 kt de nord-est

TAF: LDOS 120525Z 1206/1306 31010KT 9999 SCT010 TX24/1213Z TN12/1303Z BECMG 1213/1215 01010KT BECMG 1216/1218 05006KT

Observations et prévisions météorologiques de plus de 4000 aéroports (messages METAR et TAF).

Les stations disponibles sont représentées par des disques jaunes et rouges sur la carte.

Passer la souris dessus pour voir le nom de la station.

Cliquer dessus pour voir les observations et prévisions météorologiques.

Pour changer de carte: cliquez sur les boutons verts avec une croix noire pour zoomer, sur le bouton vert avec un tiret pour effectuer un zoom arrière, ou sur les flèches vertes pour les cartes adjacentes.


METAR-TAF: